createdAt,value
2023-04-06T00:00:23.641Z,110.23
2023-04-06T00:02:50.930Z,110.44
2023-04-06T00:05:17.736Z,110.42
2023-04-06T00:07:44.566Z,109.75
2023-04-06T00:10:11.609Z,110.95
2023-04-06T00:12:38.297Z,110.91
2023-04-06T00:15:06.736Z,111.08
2023-04-06T00:17:33.538Z,111.29
2023-04-06T00:20:00.396Z,111.54
2023-04-06T00:22:27.279Z,111.70
2023-04-06T00:24:54.084Z,111.29
2023-04-06T00:27:20.974Z,110.39
2023-04-06T00:29:47.792Z,110.61
2023-04-06T00:32:14.582Z,110.87
2023-04-06T00:34:41.580Z,110.91
2023-04-06T00:37:08.375Z,111.16
2023-04-06T00:39:35.174Z,110.83
2023-04-06T00:42:08.431Z,111.40
2023-04-06T00:44:35.335Z,111.05
2023-04-06T00:47:02.148Z,111.37
2023-04-06T00:49:28.987Z,111.31
2023-04-06T00:51:55.883Z,111.86
2023-04-06T00:54:22.714Z,111.97
2023-04-06T00:56:49.510Z,112.00
2023-04-06T00:59:16.890Z,111.73
2023-04-06T01:01:43.764Z,113.61
2023-04-06T01:04:10.959Z,113.78
2023-04-06T01:06:37.797Z,113.70
2023-04-06T01:09:04.695Z,112.81
2023-04-06T01:11:32.403Z,112.04
2023-04-06T01:13:59.283Z,111.82
2023-04-06T01:16:26.210Z,111.72
2023-04-06T01:18:53.118Z,111.95
2023-04-06T01:21:20.042Z,111.78
2023-04-06T01:23:47.357Z,111.78
2023-04-06T01:26:14.647Z,111.68
2023-04-06T01:28:41.494Z,111.09
2023-04-06T01:31:09.798Z,111.10
2023-04-06T01:33:36.686Z,111.39
2023-04-06T01:36:04.797Z,111.26
2023-04-06T01:38:31.813Z,111.56
2023-04-06T01:40:59.007Z,111.87
2023-04-06T01:43:25.780Z,111.73
2023-04-06T01:45:52.628Z,111.97
2023-04-06T01:48:19.821Z,112.35
2023-04-06T01:50:46.892Z,112.06
2023-04-06T01:53:13.673Z,112.14
2023-04-06T01:55:40.513Z,112.11
2023-04-06T01:58:07.223Z,112.02
2023-04-06T02:00:34.163Z,111.71
2023-04-06T02:03:01.429Z,111.88
2023-04-06T02:05:30.866Z,111.74
2023-04-06T02:07:58.247Z,111.70
2023-04-06T02:10:25.413Z,112.50
2023-04-06T02:12:52.271Z,113.25
2023-04-06T02:15:19.025Z,114.94
2023-04-06T02:17:45.934Z,116.07
2023-04-06T02:20:13.049Z,116.25
2023-04-06T02:22:40.259Z,117.31
2023-04-06T02:25:07.555Z,117.41
2023-04-06T02:27:34.469Z,117.19
2023-04-06T02:30:01.406Z,117.73
2023-04-06T02:32:28.350Z,116.89
2023-04-06T02:34:55.330Z,116.38
2023-04-06T02:37:23.054Z,116.02
2023-04-06T02:39:49.791Z,114.83
2023-04-06T02:42:16.707Z,114.22
2023-04-06T02:44:43.912Z,113.45
2023-04-06T02:47:11.016Z,112.72
2023-04-06T02:49:37.808Z,112.39
2023-04-06T02:52:04.827Z,112.31
2023-04-06T02:54:31.595Z,112.69
2023-04-06T02:56:58.369Z,113.13
2023-04-06T02:59:25.608Z,114.09
2023-04-06T03:01:52.930Z,113.45
2023-04-06T03:04:19.752Z,115.51
2023-04-06T03:06:46.621Z,118.11
2023-04-06T03:09:15.135Z,118.99
2023-04-06T03:11:42.089Z,118.99
2023-04-06T03:14:08.914Z,118.96
2023-04-06T03:16:36.000Z,118.60
2023-04-06T03:19:02.729Z,118.58
2023-04-06T03:21:29.536Z,118.05
2023-04-06T03:23:56.360Z,117.65
2023-04-06T03:26:23.434Z,118.14
2023-04-06T03:28:50.260Z,118.91
2023-04-06T03:31:17.235Z,118.99
2023-04-06T03:33:51.386Z,117.79
2023-04-06T03:36:18.313Z,117.09
2023-04-06T03:38:45.364Z,116.41
2023-04-06T03:41:12.167Z,115.90
2023-04-06T03:43:38.960Z,114.51
2023-04-06T03:46:05.867Z,113.52
2023-04-06T03:48:32.645Z,113.06
2023-04-06T03:50:59.474Z,112.79
2023-04-06T03:53:26.251Z,112.06
2023-04-06T03:55:53.056Z,112.36
2023-04-06T03:58:19.851Z,112.73
2023-04-06T04:00:46.684Z,113.52
2023-04-06T04:03:13.570Z,114.44
2023-04-06T04:05:40.427Z,115.64
2023-04-06T04:08:07.215Z,115.38
2023-04-06T04:10:34.731Z,114.74
2023-04-06T04:13:01.454Z,114.00
2023-04-06T04:15:28.375Z,113.01
2023-04-06T04:17:55.339Z,113.00
2023-04-06T04:20:22.627Z,113.21
2023-04-06T04:22:49.576Z,113.67
2023-04-06T04:25:16.529Z,113.58
2023-04-06T04:27:43.297Z,113.81
2023-04-06T04:30:10.381Z,113.84
2023-04-06T04:32:37.560Z,113.97
2023-04-06T04:35:04.569Z,114.71
2023-04-06T04:37:31.746Z,114.81
2023-04-06T04:39:58.534Z,114.21
2023-04-06T04:42:25.348Z,114.38
2023-04-06T04:44:52.154Z,114.38
2023-04-06T04:47:19.022Z,114.36
2023-04-06T04:49:45.887Z,113.97
2023-04-06T04:52:12.708Z,113.28
2023-04-06T04:54:42.010Z,112.87
2023-04-06T04:57:08.850Z,112.83
2023-04-06T04:59:36.472Z,117.99
2023-04-06T05:02:03.435Z,114.74
2023-04-06T05:04:30.279Z,115.62
2023-04-06T05:07:08.034Z,114.50
2023-04-06T05:09:34.874Z,113.48
2023-04-06T05:12:02.281Z,112.37
2023-04-06T05:14:29.497Z,111.33
2023-04-06T05:16:56.331Z,110.54
2023-04-06T05:19:25.949Z,110.54
2023-04-06T05:21:52.855Z,109.98
2023-04-06T05:24:19.670Z,111.28
2023-04-06T05:26:46.609Z,112.48
2023-04-06T05:29:13.455Z,113.90
2023-04-06T05:31:40.413Z,112.44
2023-04-06T05:34:07.418Z,114.24
2023-04-06T05:36:34.333Z,114.19
2023-04-06T05:39:01.112Z,113.24
2023-04-06T05:41:28.080Z,112.64
2023-04-06T05:43:54.870Z,111.18
2023-04-06T05:46:21.819Z,110.26
2023-04-06T05:48:48.989Z,109.91
2023-04-06T05:51:15.913Z,109.41
2023-04-06T05:53:43.141Z,109.18
2023-04-06T05:56:10.015Z,109.27
2023-04-06T05:58:36.847Z,109.41
2023-04-06T06:01:05.673Z,109.23
2023-04-06T06:03:32.581Z,108.81
2023-04-06T06:06:05.960Z,105.96
2023-04-06T06:08:32.837Z,102.54
2023-04-06T06:10:59.701Z,98.99
2023-04-06T06:13:26.649Z,98.64
2023-04-06T06:15:53.483Z,98.24
2023-04-06T06:18:20.424Z,97.78
2023-04-06T06:20:47.257Z,98.10
2023-04-06T06:23:15.472Z,98.63
2023-04-06T06:25:42.234Z,98.88
2023-04-06T06:28:09.111Z,98.08
2023-04-06T06:30:35.992Z,97.07
2023-04-06T06:33:02.925Z,99.21
2023-04-06T06:35:29.949Z,93.21
2023-04-06T06:37:56.939Z,92.20
2023-04-06T06:40:25.136Z,92.34
2023-04-06T06:42:52.524Z,93.30
2023-04-06T06:45:19.721Z,94.78
2023-04-06T06:47:47.102Z,93.93
2023-04-06T06:50:14.117Z,93.63
2023-04-06T06:52:41.379Z,96.43
2023-04-06T06:55:09.433Z,93.91
2023-04-06T06:57:36.215Z,92.98
2023-04-06T07:00:03.623Z,92.59
2023-04-06T07:02:30.687Z,93.03
2023-04-06T07:04:57.970Z,93.32
2023-04-06T07:07:24.808Z,91.29
2023-04-06T07:09:51.629Z,90.54
2023-04-06T07:12:18.433Z,92.52
2023-04-06T07:14:45.287Z,91.21
2023-04-06T07:17:12.541Z,90.65
2023-04-06T07:19:39.460Z,90.46
2023-04-06T07:22:06.328Z,90.08
2023-04-06T07:24:33.187Z,89.59
2023-04-06T07:27:01.830Z,91.45
2023-04-06T07:29:28.853Z,90.86
2023-04-06T07:31:56.248Z,91.26
2023-04-06T07:34:23.482Z,91.93
2023-04-06T07:36:50.696Z,93.04
2023-04-06T07:39:17.513Z,92.49
2023-04-06T07:41:44.390Z,89.45
2023-04-06T07:44:11.241Z,90.94
2023-04-06T07:46:38.278Z,90.17
2023-04-06T07:49:05.374Z,90.18
2023-04-06T07:51:33.960Z,93.56
2023-04-06T07:54:03.153Z,92.27
2023-04-06T07:56:35.928Z,92.37
2023-04-06T07:59:03.930Z,92.61
2023-04-06T08:01:31.442Z,90.69
2023-04-06T08:03:58.420Z,90.63
2023-04-06T08:06:25.573Z,89.95
2023-04-06T08:08:52.475Z,86.99
2023-04-06T08:11:19.305Z,89.01
2023-04-06T08:13:46.135Z,88.31
2023-04-06T08:16:13.110Z,86.42
2023-04-06T08:18:40.084Z,85.16
2023-04-06T08:21:06.933Z,85.99
2023-04-06T08:23:33.873Z,84.04
2023-04-06T08:26:00.724Z,83.44
2023-04-06T08:28:27.668Z,79.07
2023-04-06T08:30:54.536Z,79.93
2023-04-06T08:33:21.529Z,77.09
2023-04-06T08:35:48.602Z,76.91
2023-04-06T08:38:15.520Z,73.31
2023-04-06T08:40:44.619Z,72.34
2023-04-06T08:43:16.784Z,70.20
2023-04-06T08:45:44.252Z,71.98
2023-04-06T08:48:13.440Z,67.54
2023-04-06T08:50:41.516Z,66.07
2023-04-06T08:53:09.279Z,59.46
2023-04-06T08:55:36.888Z,60.89
2023-04-06T08:58:07.707Z,58.99
2023-04-06T09:00:38.431Z,56.29
2023-04-06T09:03:07.565Z,54.52
2023-04-06T09:05:34.697Z,49.63
2023-04-06T09:08:01.588Z,47.08
2023-04-06T09:10:29.589Z,43.50
2023-04-06T09:13:09.909Z,45.27
2023-04-06T09:15:36.810Z,43.19
2023-04-06T09:18:03.638Z,43.87
2023-04-06T09:20:30.646Z,41.86
2023-04-06T09:22:57.789Z,38.96
2023-04-06T09:25:27.549Z,39.04
2023-04-06T09:28:05.491Z,40.71
2023-04-06T09:30:32.673Z,38.21
2023-04-06T09:33:00.858Z,38.01
2023-04-06T09:35:28.455Z,37.44
2023-04-06T09:37:56.534Z,33.98
2023-04-06T09:40:23.630Z,32.93
2023-04-06T09:42:53.466Z,32.33
2023-04-06T09:45:21.835Z,32.10
2023-04-06T09:47:51.072Z,32.60
2023-04-06T09:50:20.683Z,32.92
2023-04-06T09:52:49.726Z,27.78
2023-04-06T09:55:27.118Z,27.12
2023-04-06T09:57:58.249Z,25.95
2023-04-06T10:00:27.318Z,28.10
2023-04-06T10:03:15.036Z,28.49
2023-04-06T10:05:47.918Z,28.20
2023-04-06T10:08:16.328Z,26.97
2023-04-06T10:10:44.129Z,27.33
2023-04-06T10:13:12.157Z,27.68
2023-04-06T10:15:43.492Z,25.09
2023-04-06T10:18:10.918Z,23.94
2023-04-06T10:20:56.809Z,24.85
2023-04-06T10:23:35.092Z,24.85
2023-04-06T10:26:05.931Z,25.75
2023-04-06T10:28:35.316Z,25.58
2023-04-06T10:31:05.878Z,26.88
2023-04-06T10:33:33.078Z,26.43
2023-04-06T10:36:14.128Z,25.56
2023-04-06T10:38:42.540Z,23.80
2023-04-06T10:41:13.118Z,22.95
2023-04-06T10:43:42.537Z,22.02
2023-04-06T10:46:12.893Z,24.02
2023-04-06T10:48:48.966Z,23.15
2023-04-06T10:51:17.262Z,22.11
2023-04-06T10:53:49.471Z,21.59
2023-04-06T10:56:18.869Z,20.97
2023-04-06T10:58:47.784Z,19.26
2023-04-06T11:01:19.485Z,18.50
2023-04-06T11:03:50.779Z,19.64
2023-04-06T11:06:21.605Z,20.35
2023-04-06T11:08:49.076Z,20.50
2023-04-06T11:11:19.385Z,20.37
2023-04-06T11:13:54.412Z,19.93
2023-04-06T11:16:31.405Z,19.88
2023-04-06T11:19:03.192Z,21.53
2023-04-06T11:21:50.271Z,21.05
2023-04-06T11:24:22.582Z,20.85
2023-04-06T11:26:55.227Z,21.60
2023-04-06T11:29:27.574Z,19.05
2023-04-06T11:31:59.333Z,21.09
2023-04-06T11:34:26.945Z,19.47
2023-04-06T11:36:59.332Z,22.02
2023-04-06T11:39:28.347Z,21.30
2023-04-06T11:41:59.337Z,23.37
2023-04-06T11:44:41.180Z,22.24
2023-04-06T11:47:09.983Z,20.47
2023-04-06T11:49:46.081Z,20.46
2023-04-06T11:52:24.027Z,21.37
2023-04-06T11:54:53.384Z,22.20
2023-04-06T11:57:21.759Z,20.77
2023-04-06T11:59:48.815Z,21.49
2023-04-06T12:02:15.982Z,19.75
2023-04-06T12:04:42.916Z,20.89
2023-04-06T12:07:10.310Z,20.78
2023-04-06T12:09:41.115Z,20.47
2023-04-06T12:12:08.064Z,20.76
2023-04-06T12:14:34.853Z,20.68
2023-04-06T12:17:01.659Z,18.51
2023-04-06T12:19:29.936Z,18.46
2023-04-06T12:21:58.595Z,17.98
2023-04-06T12:24:25.878Z,17.86
2023-04-06T12:26:59.489Z,18.70
2023-04-06T12:29:30.264Z,19.53
2023-04-06T12:31:57.326Z,18.77
2023-04-06T12:34:24.338Z,18.46
2023-04-06T12:36:51.217Z,19.02
2023-04-06T12:39:21.660Z,19.14
2023-04-06T12:41:48.799Z,17.97
2023-04-06T12:44:15.722Z,19.23
2023-04-06T12:46:44.188Z,18.19
2023-04-06T12:49:11.277Z,17.88
2023-04-06T12:51:38.347Z,18.26
2023-04-06T12:54:05.321Z,17.57
2023-04-06T12:56:32.483Z,18.22
2023-04-06T12:59:00.208Z,17.25
2023-04-06T13:01:29.410Z,17.98
2023-04-06T13:04:00.574Z,16.54
2023-04-06T13:06:28.987Z,18.00
2023-04-06T13:08:56.559Z,17.30
2023-04-06T13:11:26.959Z,17.19
2023-04-06T13:13:54.915Z,17.02
2023-04-06T13:16:21.907Z,17.09
2023-04-06T13:18:48.794Z,16.25
2023-04-06T13:21:17.364Z,16.53
2023-04-06T13:23:45.093Z,17.67
2023-04-06T13:26:14.406Z,18.06
2023-04-06T13:28:42.018Z,17.87
2023-04-06T13:31:10.941Z,17.30
2023-04-06T13:33:38.468Z,17.18
2023-04-06T13:36:07.974Z,18.52
2023-04-06T13:38:35.200Z,16.99
2023-04-06T13:41:02.292Z,17.64
2023-04-06T13:43:29.231Z,18.24
2023-04-06T13:45:57.069Z,18.00
2023-04-06T13:48:24.181Z,17.54
2023-04-06T13:50:51.366Z,18.78
2023-04-06T13:53:18.761Z,18.02
2023-04-06T13:55:53.793Z,18.61
2023-04-06T13:58:20.767Z,17.30
2023-04-06T14:00:47.639Z,18.44
2023-04-06T14:03:14.679Z,17.79
2023-04-06T14:05:41.653Z,17.44
2023-04-06T14:08:08.488Z,17.51
2023-04-06T14:10:43.455Z,18.26
2023-04-06T14:13:10.416Z,18.41
2023-04-06T14:15:37.228Z,20.17
2023-04-06T14:18:04.338Z,20.25
2023-04-06T14:20:34.268Z,19.62
2023-04-06T14:23:02.750Z,19.41
2023-04-06T14:25:32.421Z,19.02
2023-04-06T14:27:59.515Z,19.92
2023-04-06T14:30:26.647Z,18.27
2023-04-06T14:32:54.001Z,18.35
2023-04-06T14:35:20.818Z,19.37
2023-04-06T14:37:48.244Z,18.10
2023-04-06T14:40:15.390Z,17.90
2023-04-06T14:42:42.208Z,19.07
2023-04-06T14:45:09.374Z,18.25
2023-04-06T14:47:36.356Z,19.95
2023-04-06T14:50:03.468Z,19.53
2023-04-06T14:52:32.584Z,20.66
2023-04-06T14:54:59.836Z,20.18
2023-04-06T14:57:26.764Z,20.43
2023-04-06T14:59:55.392Z,21.44
2023-04-06T15:02:22.510Z,20.65
2023-04-06T15:04:49.462Z,22.69
2023-04-06T15:07:16.252Z,22.05
2023-04-06T15:09:43.501Z,22.49
2023-04-06T15:12:10.461Z,22.49
2023-04-06T15:14:37.514Z,23.34
2023-04-06T15:17:04.252Z,23.55
2023-04-06T15:19:31.045Z,23.84
2023-04-06T15:21:59.038Z,24.04
2023-04-06T15:24:27.065Z,23.60
2023-04-06T15:26:53.930Z,24.05
2023-04-06T15:29:21.740Z,22.55
2023-04-06T15:31:48.594Z,23.21
2023-04-06T15:34:15.622Z,23.86
2023-04-06T15:36:44.573Z,22.67
2023-04-06T15:39:11.656Z,22.50
2023-04-06T15:41:38.715Z,22.55
2023-04-06T15:44:05.759Z,22.45
2023-04-06T15:46:32.834Z,22.30
2023-04-06T15:48:59.984Z,21.35
2023-04-06T15:51:27.524Z,22.41
2023-04-06T15:53:54.364Z,21.31
2023-04-06T15:56:21.570Z,22.33
2023-04-06T15:58:48.772Z,21.46
2023-04-06T16:01:17.815Z,21.93
2023-04-06T16:03:45.385Z,22.21
2023-04-06T16:06:13.077Z,20.93
2023-04-06T16:08:41.425Z,20.97
2023-04-06T16:11:09.293Z,21.65
2023-04-06T16:13:37.044Z,22.11
2023-04-06T16:16:06.061Z,22.15
2023-04-06T16:18:35.828Z,22.77
2023-04-06T16:21:04.086Z,21.52
2023-04-06T16:23:31.255Z,22.63
2023-04-06T16:25:58.160Z,23.38
2023-04-06T16:28:25.724Z,22.37
2023-04-06T16:30:52.862Z,22.31
2023-04-06T16:33:19.880Z,24.33
2023-04-06T16:35:47.516Z,21.76
2023-04-06T16:38:15.069Z,23.52
2023-04-06T16:40:42.152Z,24.97
2023-04-06T16:43:11.324Z,24.35
2023-04-06T16:45:38.426Z,25.46
2023-04-06T16:48:09.054Z,23.57
2023-04-06T16:50:36.320Z,25.24
2023-04-06T16:53:03.267Z,24.56
2023-04-06T16:55:30.009Z,25.52
2023-04-06T16:57:57.062Z,25.75
2023-04-06T17:00:24.615Z,25.67
2023-04-06T17:02:51.588Z,26.49
2023-04-06T17:05:25.922Z,27.10
2023-04-06T17:07:53.818Z,28.65
2023-04-06T17:10:28.675Z,28.65
2023-04-06T17:13:00.403Z,29.66
2023-04-06T17:15:28.918Z,30.18
2023-04-06T17:17:55.688Z,31.68
2023-04-06T17:20:22.528Z,31.46
2023-04-06T17:22:49.642Z,31.59
2023-04-06T17:25:16.614Z,32.09
2023-04-06T17:27:44.025Z,32.63
2023-04-06T17:30:12.017Z,32.72
2023-04-06T17:32:38.964Z,32.91
2023-04-06T17:35:06.312Z,33.18
2023-04-06T17:37:33.098Z,33.46
2023-04-06T17:39:59.966Z,33.36
2023-04-06T17:42:27.501Z,33.67
2023-04-06T17:44:54.326Z,34.02
2023-04-06T17:47:21.211Z,34.41
2023-04-06T17:49:49.084Z,34.63
2023-04-06T17:52:16.036Z,38.83
2023-04-06T17:54:42.964Z,35.51
2023-04-06T17:57:09.738Z,35.79
2023-04-06T17:59:36.533Z,38.62
2023-04-06T18:02:04.262Z,37.27
2023-04-06T18:04:31.322Z,42.31
2023-04-06T18:06:58.199Z,37.31
2023-04-06T18:11:57.218Z,38.40
2023-04-06T18:14:24.797Z,38.69
2023-04-06T18:16:52.165Z,39.44
2023-04-06T18:19:19.235Z,39.83
2023-04-06T18:21:46.152Z,39.77
2023-04-06T18:24:23.139Z,40.35
2023-04-06T18:26:59.597Z,40.69
2023-04-06T18:29:26.693Z,41.04
2023-04-06T18:31:55.037Z,41.45
2023-04-06T18:34:22.868Z,41.91
2023-04-06T18:36:49.630Z,42.15
2023-04-06T18:39:16.399Z,42.70
2023-04-06T18:41:43.349Z,43.51
2023-04-06T18:44:10.468Z,44.29
2023-04-06T18:46:39.149Z,44.99
2023-04-06T18:49:06.088Z,45.23
2023-04-06T18:51:33.355Z,46.38
2023-04-06T18:54:01.696Z,46.96
2023-04-06T18:56:28.701Z,48.01
2023-04-06T18:58:55.977Z,48.76
2023-04-06T19:01:25.596Z,49.33
2023-04-06T19:03:53.681Z,50.27
2023-04-06T19:06:21.514Z,50.76
2023-04-06T19:08:49.390Z,50.47
2023-04-06T19:11:16.677Z,51.13
2023-04-06T19:13:50.229Z,51.30
2023-04-06T19:16:18.152Z,51.95
2023-04-06T19:18:45.786Z,52.94
2023-04-06T19:21:23.268Z,53.34
2023-04-06T19:23:52.389Z,53.36
2023-04-06T19:26:20.039Z,53.84
2023-04-06T19:28:47.584Z,54.05
2023-04-06T19:31:16.461Z,55.26
2023-04-06T19:33:43.910Z,56.29
2023-04-06T19:36:10.890Z,56.84
2023-04-06T19:38:38.683Z,57.00
2023-04-06T19:41:05.560Z,59.79
2023-04-06T19:43:32.546Z,59.09
2023-04-06T19:45:59.544Z,59.18
2023-04-06T19:48:26.573Z,59.40
2023-04-06T19:50:57.200Z,60.15
2023-04-06T19:53:24.026Z,61.47
2023-04-06T19:55:51.511Z,61.40
2023-04-06T19:58:18.950Z,62.14
2023-04-06T20:00:46.021Z,62.79
2023-04-06T20:03:13.101Z,61.90
2023-04-06T20:05:40.204Z,62.73
2023-04-06T20:08:07.528Z,62.86
2023-04-06T20:10:34.576Z,64.05
2023-04-06T20:13:01.500Z,64.90
2023-04-06T20:15:28.704Z,65.25
2023-04-06T20:17:55.569Z,65.42
2023-04-06T20:20:22.461Z,66.77
2023-04-06T20:22:50.249Z,67.81
2023-04-06T20:25:18.411Z,68.90
2023-04-06T20:27:45.678Z,73.70
2023-04-06T20:30:16.723Z,73.42
2023-04-06T20:32:43.736Z,74.39
2023-04-06T20:35:11.044Z,74.06
2023-04-06T20:37:37.958Z,75.86
2023-04-06T20:40:05.489Z,77.97
2023-04-06T20:42:32.325Z,79.08
2023-04-06T20:44:59.475Z,79.05
2023-04-06T20:47:27.165Z,79.42
2023-04-06T20:49:54.073Z,80.29
2023-04-06T20:52:20.973Z,81.59
2023-04-06T20:54:48.532Z,81.53
2023-04-06T20:57:15.448Z,82.29
2023-04-06T20:59:42.536Z,81.61
2023-04-06T21:02:09.481Z,82.62
2023-04-06T21:04:37.369Z,83.61
2023-04-06T21:07:05.616Z,83.91
2023-04-06T21:09:38.530Z,83.78
2023-04-06T21:12:06.167Z,84.67
2023-04-06T21:14:33.322Z,85.51
2023-04-06T21:17:00.734Z,85.54
2023-04-06T21:19:27.685Z,85.60
2023-04-06T21:21:55.022Z,85.87
2023-04-06T21:24:21.797Z,86.09
2023-04-06T21:26:48.535Z,86.30
2023-04-06T21:29:15.312Z,87.25
2023-04-06T21:31:42.689Z,87.51
2023-04-06T21:34:10.773Z,87.28
2023-04-06T21:36:38.446Z,87.68
2023-04-06T21:39:06.055Z,87.22
2023-04-06T21:41:33.796Z,87.69
2023-04-06T21:44:00.776Z,87.38
2023-04-06T21:46:27.622Z,88.83
2023-04-06T21:48:54.460Z,88.67
2023-04-06T21:51:23.036Z,88.22
2023-04-06T21:53:50.264Z,89.06
2023-04-06T21:56:24.914Z,88.38
2023-04-06T21:58:53.054Z,89.45
2023-04-06T22:01:20.419Z,89.54
2023-04-06T22:03:47.510Z,89.41
2023-04-06T22:06:14.505Z,89.74
2023-04-06T22:08:41.314Z,89.53
2023-04-06T22:11:09.759Z,89.38
2023-04-06T22:13:37.804Z,89.87
2023-04-06T22:16:05.368Z,90.24
2023-04-06T22:18:32.232Z,89.43
2023-04-06T22:20:59.621Z,89.79
2023-04-06T22:23:26.508Z,90.14
2023-04-06T22:25:53.474Z,90.44
2023-04-06T22:28:20.307Z,90.17
2023-04-06T22:30:47.122Z,89.83
2023-04-06T22:33:13.993Z,89.95
2023-04-06T22:35:40.986Z,90.48
2023-04-06T22:38:07.974Z,91.06
2023-04-06T22:40:34.705Z,90.98
2023-04-06T22:43:01.472Z,91.46
2023-04-06T22:45:28.295Z,91.21
2023-04-06T22:47:55.115Z,91.69
2023-04-06T22:50:22.471Z,92.03
2023-04-06T22:52:49.380Z,92.01
2023-04-06T22:55:16.320Z,92.26
2023-04-06T22:57:43.121Z,92.63
2023-04-06T23:00:10.660Z,92.86
2023-04-06T23:02:37.792Z,93.69
2023-04-06T23:05:04.948Z,93.57
2023-04-06T23:07:32.770Z,93.14
2023-04-06T23:09:59.839Z,93.66
2023-04-06T23:12:26.636Z,94.07
2023-04-06T23:14:54.029Z,94.27
2023-04-06T23:17:20.869Z,94.75
2023-04-06T23:19:47.809Z,95.36
2023-04-06T23:22:14.614Z,94.69
2023-04-06T23:24:41.492Z,95.50
2023-04-06T23:27:08.467Z,95.84
2023-04-06T23:29:35.336Z,95.56
2023-04-06T23:32:02.205Z,96.01
2023-04-06T23:34:29.083Z,96.28
2023-04-06T23:36:55.892Z,96.13
2023-04-06T23:39:22.696Z,96.81
2023-04-06T23:41:49.444Z,96.44
2023-04-06T23:44:16.311Z,96.80
2023-04-06T23:46:43.160Z,96.24
2023-04-06T23:49:09.922Z,96.83
2023-04-06T23:51:36.648Z,97.58
2023-04-06T23:54:04.914Z,97.55
2023-04-06T23:56:31.900Z,97.84
2023-04-06T23:58:58.695Z,98.13
